sensor_id;sensor_type;location;lat;lon;timestamp;pressure;altitude;pressure_sealevel;temperature;humidity
44255;BME280;29933;47.226;15.734;2022-10-16T00:01:22;96558.09;;;10.53;100.00
44255;BME280;29933;47.226;15.734;2022-10-16T00:03:48;96555.75;;;10.51;100.00
44255;BME280;29933;47.226;15.734;2022-10-16T00:06:17;96551.13;;;10.52;100.00
44255;BME280;29933;47.226;15.734;2022-10-16T00:08:44;96558.09;;;10.49;100.00
44255;BME280;29933;47.226;15.734;2022-10-16T00:11:27;96557.31;;;10.52;100.00
44255;BME280;29933;47.226;15.734;2022-10-16T00:14:00;96551.88;;;10.49;100.00
44255;BME280;29933;47.226;15.734;2022-10-16T00:16:28;96554.19;;;10.47;100.00
44255;BME280;29933;47.226;15.734;2022-10-16T00:18:54;96550.69;;;10.46;100.00
44255;BME280;29933;47.226;15.734;2022-10-16T00:21:24;96562.69;;;10.45;100.00
44255;BME280;29933;47.226;15.734;2022-10-16T00:23:53;96559.59;;;10.43;100.00
44255;BME280;29933;47.226;15.734;2022-10-16T00:26:19;96551.84;;;10.42;100.00
44255;BME280;29933;47.226;15.734;2022-10-16T00:28:50;96558.44;;;10.41;100.00
44255;BME280;29933;47.226;15.734;2022-10-16T00:31:19;96556.88;;;10.40;100.00
44255;BME280;29933;47.226;15.734;2022-10-16T00:33:45;96559.19;;;10.37;100.00
44255;BME280;29933;47.226;15.734;2022-10-16T00:36:15;96560.34;;;10.40;100.00
44255;BME280;29933;47.226;15.734;2022-10-16T00:38:42;96566.59;;;10.41;100.00
44255;BME280;29933;47.226;15.734;2022-10-16T00:41:13;96563.47;;;10.39;100.00
44255;BME280;29933;47.226;15.734;2022-10-16T00:43:58;96571.59;;;10.39;100.00
44255;BME280;29933;47.226;15.734;2022-10-16T00:46:40;96573.50;;;10.34;100.00
44255;BME280;29933;47.226;15.734;2022-10-16T00:49:15;96571.94;;;10.33;100.00
44255;BME280;29933;47.226;15.734;2022-10-16T00:51:49;96585.50;;;10.33;100.00
44255;BME280;29933;47.226;15.734;2022-10-16T00:54:23;96584.72;;;10.29;100.00
44255;BME280;29933;47.226;15.734;2022-10-16T00:56:50;96586.66;;;10.32;100.00
44255;BME280;29933;47.226;15.734;2022-10-16T00:59:34;96587.44;;;10.33;100.00
44255;BME280;29933;47.226;15.734;2022-10-16T01:02:03;96590.94;;;10.33;100.00
44255;BME280;29933;47.226;15.734;2022-10-16T01:04:38;96582.78;;;10.33;100.00
44255;BME280;29933;47.226;15.734;2022-10-16T01:10:06;96592.09;;;10.32;100.00
44255;BME280;29933;47.226;15.734;2022-10-16T01:12:59;96589.75;;;10.31;100.00
44255;BME280;29933;47.226;15.734;2022-10-16T01:18:47;96593.66;;;10.33;100.00
44255;BME280;29933;47.226;15.734;2022-10-16T01:21:29;96587.06;;;10.34;100.00
44255;BME280;29933;47.226;15.734;2022-10-16T01:24:30;96576.22;;;10.34;100.00
44255;BME280;29933;47.226;15.734;2022-10-16T01:27:28;96590.19;;;10.36;100.00
44255;BME280;29933;47.226;15.734;2022-10-16T01:32:41;96582.75;;;10.26;100.00
44255;BME280;29933;47.226;15.734;2022-10-16T01:35:28;96585.84;;;10.25;100.00
44255;BME280;29933;47.226;15.734;2022-10-16T01:40:35;96588.94;;;10.19;100.00
44255;BME280;29933;47.226;15.734;2022-10-16T01:43:40;96591.63;;;10.19;100.00
44255;BME280;29933;47.226;15.734;2022-10-16T01:46:09;96591.25;;;10.21;100.00
44255;BME280;29933;47.226;15.734;2022-10-16T01:48:36;96581.16;;;10.18;100.00
44255;BME280;29933;47.226;15.734;2022-10-16T01:51:21;96591.22;;;10.17;100.00
44255;BME280;29933;47.226;15.734;2022-10-16T01:53:53;96589.66;;;10.16;100.00
44255;BME280;29933;47.226;15.734;2022-10-16T01:56:21;96595.88;;;10.13;100.00
44255;BME280;29933;47.226;15.734;2022-10-16T01:59:13;96588.09;;;10.12;100.00
44255;BME280;29933;47.226;15.734;2022-10-16T02:01:45;96594.31;;;10.12;100.00
44255;BME280;29933;47.226;15.734;2022-10-16T02:04:26;96589.25;;;10.11;100.00
44255;BME280;29933;47.226;15.734;2022-10-16T02:06:54;96587.72;;;10.13;100.00
44255;BME280;29933;47.226;15.734;2022-10-16T02:09:20;96577.28;;;10.23;100.00
44255;BME280;29933;47.226;15.734;2022-10-16T02:11:47;96581.19;;;10.25;100.00
44255;BME280;29933;47.226;15.734;2022-10-16T02:14:15;96577.31;;;10.26;100.00
44255;BME280;29933;47.226;15.734;2022-10-16T02:16:44;96575.00;;;10.28;100.00
44255;BME280;29933;47.226;15.734;2022-10-16T02:19:12;96574.25;;;10.31;100.00
44255;BME280;29933;47.226;15.734;2022-10-16T02:21:54;96578.94;;;10.34;100.00
44255;BME280;29933;47.226;15.734;2022-10-16T02:27:21;96581.19;;;10.25;100.00
44255;BME280;29933;47.226;15.734;2022-10-16T02:29:55;96584.28;;;10.24;100.00
44255;BME280;29933;47.226;15.734;2022-10-16T02:32:30;96581.19;;;10.25;100.00
44255;BME280;29933;47.226;15.734;2022-10-16T02:34:58;96579.63;;;10.24;100.00
44255;BME280;29933;47.226;15.734;2022-10-16T02:37:26;96572.69;;;10.27;100.00
44255;BME280;29933;47.226;15.734;2022-10-16T02:39:54;96582.38;;;10.28;100.00
44255;BME280;29933;47.226;15.734;2022-10-16T02:42:27;96582.00;;;10.29;100.00
44255;BME280;29933;47.226;15.734;2022-10-16T02:44:53;96582.38;;;10.31;100.00
44255;BME280;29933;47.226;15.734;2022-10-16T02:47:19;96583.53;;;10.30;100.00
44255;BME280;29933;47.226;15.734;2022-10-16T02:49:45;96578.94;;;10.34;100.00
44255;BME280;29933;47.226;15.734;2022-10-16T02:52:11;96583.22;;;10.35;100.00
44255;BME280;29933;47.226;15.734;2022-10-16T02:54:36;96580.50;;;10.35;100.00
44255;BME280;29933;47.226;15.734;2022-10-16T02:57:02;96585.91;;;10.35;100.00
44255;BME280;29933;47.226;15.734;2022-10-16T02:59:28;96584.00;;;10.36;100.00
44255;BME280;29933;47.226;15.734;2022-10-16T03:01:54;96584.41;;;10.38;100.00
44255;BME280;29933;47.226;15.734;2022-10-16T03:04:20;96589.44;;;10.40;100.00
44255;BME280;29933;47.226;15.734;2022-10-16T03:06:46;96591.78;;;10.41;100.00
44255;BME280;29933;47.226;15.734;2022-10-16T03:09:11;96596.06;;;10.42;100.00
44255;BME280;29933;47.226;15.734;2022-10-16T03:11:37;96603.44;;;10.45;100.00
44255;BME280;29933;47.226;15.734;2022-10-16T03:14:03;96599.94;;;10.45;100.00
44255;BME280;29933;47.226;15.734;2022-10-16T03:16:29;96604.63;;;10.44;100.00
44255;BME280;29933;47.226;15.734;2022-10-16T03:18:55;96608.09;;;10.45;100.00
44255;BME280;29933;47.226;15.734;2022-10-16T03:21:20;96601.91;;;10.44;100.00
44255;BME280;29933;47.226;15.734;2022-10-16T03:23:46;96601.50;;;10.46;100.00
44255;BME280;29933;47.226;15.734;2022-10-16T03:26:12;96606.91;;;10.42;100.00
44255;BME280;29933;47.226;15.734;2022-10-16T03:28:38;96607.31;;;10.41;100.00
44255;BME280;29933;47.226;15.734;2022-10-16T03:31:04;96602.25;;;10.43;100.00
44255;BME280;29933;47.226;15.734;2022-10-16T03:33:30;96601.50;;;10.42;100.00
44255;BME280;29933;47.226;15.734;2022-10-16T03:35:56;96603.03;;;10.40;100.00
44255;BME280;29933;47.226;15.734;2022-10-16T03:38:22;96603.00;;;10.36;100.00
44255;BME280;29933;47.226;15.734;2022-10-16T03:40:48;96612.97;;;10.21;100.00
44255;BME280;29933;47.226;15.734;2022-10-16T03:43:14;96609.44;;;10.13;100.00
44255;BME280;29933;47.226;15.734;2022-10-16T03:45:39;96615.97;;;10.09;100.00
44255;BME280;29933;47.226;15.734;2022-10-16T03:48:05;96612.50;;;10.08;100.00
44255;BME280;29933;47.226;15.734;2022-10-16T03:50:31;96615.97;;;10.09;100.00
44255;BME280;29933;47.226;15.734;2022-10-16T03:52:57;96617.19;;;10.15;100.00
44255;BME280;29933;47.226;15.734;2022-10-16T03:55:23;96625.38;;;10.18;100.00
44255;BME280;29933;47.226;15.734;2022-10-16T03:57:49;96627.66;;;10.16;100.00
44255;BME280;29933;47.226;15.734;2022-10-16T04:00:15;96636.56;;;10.13;100.00
44255;BME280;29933;47.226;15.734;2022-10-16T04:02:41;96627.63;;;10.13;100.00
44255;BME280;29933;47.226;15.734;2022-10-16T04:05:07;96633.84;;;10.13;100.00
44255;BME280;29933;47.226;15.734;2022-10-16T04:07:33;96639.28;;;10.13;100.00
44255;BME280;29933;47.226;15.734;2022-10-16T04:09:58;96638.13;;;10.14;100.00
44255;BME280;29933;47.226;15.734;2022-10-16T04:12:26;96636.19;;;10.15;100.00
44255;BME280;29933;47.226;15.734;2022-10-16T04:14:52;96638.16;;;10.18;100.00
44255;BME280;29933;47.226;15.734;2022-10-16T04:17:17;96643.97;;;10.20;100.00
44255;BME280;29933;47.226;15.734;2022-10-16T04:19:43;96643.25;;;10.23;100.00
44255;BME280;29933;47.226;15.734;2022-10-16T04:22:10;96636.63;;;10.24;100.00
44255;BME280;29933;47.226;15.734;2022-10-16T04:24:35;96641.69;;;10.26;100.00
44255;BME280;29933;47.226;15.734;2022-10-16T04:27:01;96632.75;;;10.25;100.00
44255;BME280;29933;47.226;15.734;2022-10-16T04:29:27;96635.88;;;10.27;100.00
44255;BME280;29933;47.226;15.734;2022-10-16T04:31:53;96635.13;;;10.30;100.00
44255;BME280;29933;47.226;15.734;2022-10-16T04:34:19;96634.75;;;10.32;100.00
44255;BME280;29933;47.226;15.734;2022-10-16T04:36:47;96632.41;;;10.30;100.00
44255;BME280;29933;47.226;15.734;2022-10-16T04:39:15;96628.53;;;10.31;100.00
44255;BME280;29933;47.226;15.734;2022-10-16T04:41:41;96628.16;;;10.33;100.00
44255;BME280;29933;47.226;15.734;2022-10-16T04:44:07;96636.00;;;10.38;100.00
44255;BME280;29933;47.226;15.734;2022-10-16T04:46:34;96634.81;;;10.39;100.00
44255;BME280;29933;47.226;15.734;2022-10-16T04:49:00;96632.91;;;10.40;100.00
44255;BME280;29933;47.226;15.734;2022-10-16T04:51:26;96630.94;;;10.40;100.00
44255;BME280;29933;47.226;15.734;2022-10-16T04:53:53;96645.31;;;10.41;100.00
44255;BME280;29933;47.226;15.734;2022-10-16T04:56:20;96638.31;;;10.40;100.00
44255;BME280;29933;47.226;15.734;2022-10-16T04:58:47;96634.84;;;10.43;100.00
44255;BME280;29933;47.226;15.734;2022-10-16T05:01:13;96637.19;;;10.44;100.00
44255;BME280;29933;47.226;15.734;2022-10-16T05:03:39;96646.53;;;10.47;100.00
44255;BME280;29933;47.226;15.734;2022-10-16T05:06:06;96648.41;;;10.43;100.00
44255;BME280;29933;47.226;15.734;2022-10-16T05:08:33;96642.97;;;10.43;100.00
44255;BME280;29933;47.226;15.734;2022-10-16T05:10:59;96648.03;;;10.41;100.00
44255;BME280;29933;47.226;15.734;2022-10-16T05:13:25;96650.75;;;10.41;100.00
44255;BME280;29933;47.226;15.734;2022-10-16T05:15:51;96651.09;;;10.39;100.00
44255;BME280;29933;47.226;15.734;2022-10-16T05:18:17;96654.63;;;10.40;100.00
44255;BME280;29933;47.226;15.734;2022-10-16T05:20:43;96661.19;;;10.39;100.00
44255;BME280;29933;47.226;15.734;2022-10-16T05:23:09;96657.72;;;10.38;100.00
44255;BME280;29933;47.226;15.734;2022-10-16T05:25:38;96656.53;;;10.39;100.00
44255;BME280;29933;47.226;15.734;2022-10-16T05:28:04;96668.97;;;10.44;100.00
44255;BME280;29933;47.226;15.734;2022-10-16T05:30:30;96674.44;;;10.47;100.00
44255;BME280;29933;47.226;15.734;2022-10-16T05:32:56;96683.75;;;10.46;100.00
44255;BME280;29933;47.226;15.734;2022-10-16T05:35:22;96686.84;;;10.45;100.00
44255;BME280;29933;47.226;15.734;2022-10-16T05:37:48;96685.25;;;10.40;100.00
44255;BME280;29933;47.226;15.734;2022-10-16T05:40:14;96689.13;;;10.43;100.00
44255;BME280;29933;47.226;15.734;2022-10-16T05:42:41;96680.63;;;10.44;100.00
44255;BME280;29933;47.226;15.734;2022-10-16T05:45:10;96690.69;;;10.44;100.00
44255;BME280;29933;47.226;15.734;2022-10-16T05:47:36;96691.47;;;10.41;100.00
44255;BME280;29933;47.226;15.734;2022-10-16T05:50:02;96702.34;;;10.41;100.00
44255;BME280;29933;47.226;15.734;2022-10-16T05:52:29;96690.28;;;10.38;100.00
44255;BME280;29933;47.226;15.734;2022-10-16T05:54:55;96701.91;;;10.39;100.00
44255;BME280;29933;47.226;15.734;2022-10-16T05:57:21;96707.75;;;10.41;100.00
44255;BME280;29933;47.226;15.734;2022-10-16T05:59:47;96713.56;;;10.43;100.00
44255;BME280;29933;47.226;15.734;2022-10-16T06:02:13;96716.31;;;10.46;100.00
44255;BME280;29933;47.226;15.734;2022-10-16T06:04:40;96716.72;;;10.45;100.00
44255;BME280;29933;47.226;15.734;2022-10-16T06:07:06;96719.00;;;10.43;100.00
44255;BME280;29933;47.226;15.734;2022-10-16T06:09:32;96724.06;;;10.41;100.00
44255;BME280;29933;47.226;15.734;2022-10-16T06:11:58;96717.81;;;10.40;100.00
44255;BME280;29933;47.226;15.734;2022-10-16T06:14:24;96729.88;;;10.43;100.00
44255;BME280;29933;47.226;15.734;2022-10-16T06:16:50;96731.06;;;10.45;100.00
44255;BME280;29933;47.226;15.734;2022-10-16T06:19:16;96733.75;;;10.45;100.00
44255;BME280;29933;47.226;15.734;2022-10-16T06:21:43;96741.16;;;10.45;100.00
44255;BME280;29933;47.226;15.734;2022-10-16T06:24:09;96744.63;;;10.45;100.00
44255;BME280;29933;47.226;15.734;2022-10-16T06:26:35;96752.00;;;10.45;100.00
44255;BME280;29933;47.226;15.734;2022-10-16T06:29:01;96767.13;;;10.42;100.00
44255;BME280;29933;47.226;15.734;2022-10-16T06:31:28;96757.41;;;10.41;100.00
44255;BME280;29933;47.226;15.734;2022-10-16T06:33:57;96760.50;;;10.40;100.00
44255;BME280;29933;47.226;15.734;2022-10-16T06:36:23;96767.84;;;10.39;100.00
44255;BME280;29933;47.226;15.734;2022-10-16T06:38:50;96769.75;;;10.35;100.00
44255;BME280;29933;47.226;15.734;2022-10-16T06:41:19;96771.22;;;10.29;100.00
44255;BME280;29933;47.226;15.734;2022-10-16T06:43:46;96776.25;;;10.23;100.00
44255;BME280;29933;47.226;15.734;2022-10-16T06:46:15;96781.22;;;10.17;100.00
44255;BME280;29933;47.226;15.734;2022-10-16T06:48:41;96779.25;;;10.14;100.00
44255;BME280;29933;47.226;15.734;2022-10-16T06:51:22;96779.25;;;10.14;100.00
44255;BME280;29933;47.226;15.734;2022-10-16T06:53:53;96777.69;;;10.13;100.00
44255;BME280;29933;47.226;15.734;2022-10-16T06:56:22;96780.03;;;10.15;100.00
44255;BME280;29933;47.226;15.734;2022-10-16T06:58:49;96784.28;;;10.12;100.00
44255;BME280;29933;47.226;15.734;2022-10-16T07:01:17;96790.44;;;10.09;100.00
44255;BME280;29933;47.226;15.734;2022-10-16T07:03:45;96788.13;;;10.11;100.00
44255;BME280;29933;47.226;15.734;2022-10-16T07:06:19;96792.03;;;10.14;100.00
44255;BME280;29933;47.226;15.734;2022-10-16T07:08:46;96794.78;;;10.17;100.00
44255;BME280;29933;47.226;15.734;2022-10-16T07:11:16;96792.53;;;10.23;100.00
44255;BME280;29933;47.226;15.734;2022-10-16T07:13:44;96790.19;;;10.25;100.00
44255;BME280;29933;47.226;15.734;2022-10-16T07:16:16;96789.06;;;10.26;100.00
44255;BME280;29933;47.226;15.734;2022-10-16T07:18:43;96792.56;;;10.27;100.00
44255;BME280;29933;47.226;15.734;2022-10-16T07:21:17;96789.09;;;10.30;100.00
44255;BME280;29933;47.226;15.734;2022-10-16T07:23:44;96793.00;;;10.32;100.00
44255;BME280;29933;47.226;15.734;2022-10-16T07:26:11;96788.88;;;10.46;100.00
44255;BME280;29933;47.226;15.734;2022-10-16T07:28:37;96796.38;;;10.63;100.00
44255;BME280;29933;47.226;15.734;2022-10-16T07:31:07;96804.09;;;10.58;100.00
44255;BME280;29933;47.226;15.734;2022-10-16T07:33:34;96798.25;;;10.56;100.00
44255;BME280;29933;47.226;15.734;2022-10-16T07:36:00;96800.22;;;10.59;100.00
44255;BME280;29933;47.226;15.734;2022-10-16T07:38:26;96799.47;;;10.62;100.00
44255;BME280;29933;47.226;15.734;2022-10-16T07:41:04;96799.50;;;10.69;100.00
44255;BME280;29933;47.226;15.734;2022-10-16T07:43:31;96796.47;;;10.78;100.00
44255;BME280;29933;47.226;15.734;2022-10-16T07:45:57;96800.44;;;10.91;100.00
44255;BME280;29933;47.226;15.734;2022-10-16T07:48:27;96795.13;;;11.06;100.00
44255;BME280;29933;47.226;15.734;2022-10-16T07:51:00;96798.31;;;11.22;100.00
44255;BME280;29933;47.226;15.734;2022-10-16T07:53:27;96793.75;;;11.41;100.00
44255;BME280;29933;47.226;15.734;2022-10-16T07:56:02;96787.63;;;11.62;100.00
44255;BME280;29933;47.226;15.734;2022-10-16T07:58:29;96793.13;;;11.87;100.00
44255;BME280;29933;47.226;15.734;2022-10-16T08:00:56;96796.31;;;12.11;100.00
44255;BME280;29933;47.226;15.734;2022-10-16T08:03:23;96797.53;;;12.31;100.00
44255;BME280;29933;47.226;15.734;2022-10-16T08:05:49;96795.59;;;12.54;100.00
44255;BME280;29933;47.226;15.734;2022-10-16T08:08:17;96794.03;;;12.74;100.00
44255;BME280;29933;47.226;15.734;2022-10-16T08:10:43;96799.47;;;12.92;100.00
44255;BME280;29933;47.226;15.734;2022-10-16T08:13:09;96796.31;;;13.08;100.00
44255;BME280;29933;47.226;15.734;2022-10-16T08:15:35;96782.25;;;13.24;100.00
44255;BME280;29933;47.226;15.734;2022-10-16T08:18:04;96787.69;;;13.42;100.00
44255;BME280;29933;47.226;15.734;2022-10-16T08:20:32;96787.63;;;13.60;100.00
44255;BME280;29933;47.226;15.734;2022-10-16T08:23:00;96799.63;;;13.77;100.00
44255;BME280;29933;47.226;15.734;2022-10-16T08:25:26;96791.34;;;13.96;100.00
44255;BME280;29933;47.226;15.734;2022-10-16T08:27:52;96793.63;;;14.12;100.00
44255;BME280;29933;47.226;15.734;2022-10-16T08:30:20;96784.94;;;14.24;100.00
44255;BME280;29933;47.226;15.734;2022-10-16T08:32:46;96799.66;;;14.37;100.00
44255;BME280;29933;47.226;15.734;2022-10-16T08:35:13;96794.91;;;14.49;100.00
44255;BME280;29933;47.226;15.734;2022-10-16T08:37:40;96805.03;;;14.55;100.00
44255;BME280;29933;47.226;15.734;2022-10-16T08:40:16;96797.16;;;14.65;100.00
44255;BME280;29933;47.226;15.734;2022-10-16T08:43:28;96800.13;;;14.81;100.00
44255;BME280;29933;47.226;15.734;2022-10-16T08:48:53;96817.84;;;15.11;100.00
44255;BME280;29933;47.226;15.734;2022-10-16T08:51:36;96811.81;;;15.27;100.00
44255;BME280;29933;47.226;15.734;2022-10-16T08:56:48;96812.09;;;15.40;100.00
44255;BME280;29933;47.226;15.734;2022-10-16T08:59:14;96812.56;;;15.66;100.00
44255;BME280;29933;47.226;15.734;2022-10-16T09:01:49;96812.34;;;15.88;100.00
44255;BME280;29933;47.226;15.734;2022-10-16T09:04:40;96814.94;;;15.98;100.00
44255;BME280;29933;47.226;15.734;2022-10-16T09:07:42;96810.03;;;16.13;100.00
44255;BME280;29933;47.226;15.734;2022-10-16T09:13:45;96817.50;;;16.40;100.00
44255;BME280;29933;47.226;15.734;2022-10-16T09:16:37;96809.84;;;16.55;100.00
44255;BME280;29933;47.226;15.734;2022-10-16T09:19:18;96815.88;;;16.70;100.00
44255;BME280;29933;47.226;15.734;2022-10-16T09:21:46;96815.63;;;16.84;100.00
44255;BME280;29933;47.226;15.734;2022-10-16T09:24:18;96813.38;;;17.03;100.00
44255;BME280;29933;47.226;15.734;2022-10-16T09:26:47;96813.91;;;17.18;100.00
44255;BME280;29933;47.226;15.734;2022-10-16T09:29:14;96811.97;;;17.39;100.00
44255;BME280;29933;47.226;15.734;2022-10-16T09:31:42;96814.00;;;17.55;100.00
44255;BME280;29933;47.226;15.734;2022-10-16T09:36:58;96820.41;;;18.08;100.00
44255;BME280;29933;47.226;15.734;2022-10-16T09:39:25;96814.63;;;18.39;100.00
44255;BME280;29933;47.226;15.734;2022-10-16T09:41:51;96817.88;;;18.67;100.00
44255;BME280;29933;47.226;15.734;2022-10-16T09:44:28;96815.16;;;19.00;100.00
44255;BME280;29933;47.226;15.734;2022-10-16T09:47:19;96815.63;;;19.28;100.00
44255;BME280;29933;47.226;15.734;2022-10-16T09:50:05;96819.03;;;19.49;100.00
44255;BME280;29933;47.226;15.734;2022-10-16T09:52:41;96816.97;;;19.66;100.00
44255;BME280;29933;47.226;15.734;2022-10-16T09:55:18;96827.44;;;19.87;100.00
44255;BME280;29933;47.226;15.734;2022-10-16T09:57:54;96825.91;;;19.99;100.00
44255;BME280;29933;47.226;15.734;2022-10-16T10:00:24;96824.94;;;20.19;100.00
44255;BME280;29933;47.226;15.734;2022-10-16T10:02:50;96835.41;;;20.24;100.00
44255;BME280;29933;47.226;15.734;2022-10-16T10:05:31;96830.34;;;20.35;100.00
44255;BME280;29933;47.226;15.734;2022-10-16T10:08:05;96829.25;;;20.46;100.00
44255;BME280;29933;47.226;15.734;2022-10-16T10:10:41;96829.03;;;20.53;100.00
44255;BME280;29933;47.226;15.734;2022-10-16T10:13:22;96825.81;;;20.54;100.00
44255;BME280;29933;47.226;15.734;2022-10-16T10:15:51;96825.94;;;20.51;100.00
44255;BME280;29933;47.226;15.734;2022-10-16T10:18:21;96828.16;;;20.56;100.00
44255;BME280;29933;47.226;15.734;2022-10-16T10:21:01;96822.38;;;20.63;100.00
44255;BME280;29933;47.226;15.734;2022-10-16T10:23:35;96823.53;;;20.79;100.00
44255;BME280;29933;47.226;15.734;2022-10-16T10:26:16;96820.19;;;20.84;100.00
44255;BME280;29933;47.226;15.734;2022-10-16T10:29:15;96818.88;;;20.89;100.00
44255;BME280;29933;47.226;15.734;2022-10-16T10:35:04;96814.03;;;20.80;100.00
44255;BME280;29933;47.226;15.734;2022-10-16T10:38:20;96814.34;;;20.95;100.00
44255;BME280;29933;47.226;15.734;2022-10-16T10:41:19;96818.94;;;20.98;100.00
44255;BME280;29933;47.226;15.734;2022-10-16T10:47:36;96804.22;;;21.14;100.00
44255;BME280;29933;47.226;15.734;2022-10-16T10:50:39;96808.59;;;21.24;100.00
44255;BME280;29933;47.226;15.734;2022-10-16T10:53:56;96800.88;;;21.19;100.00
44255;BME280;29933;47.226;15.734;2022-10-16T11:02:10;96811.34;;;21.24;100.00
44255;BME280;29933;47.226;15.734;2022-10-16T11:11:07;96804.34;;;21.10;100.00
44255;BME280;29933;47.226;15.734;2022-10-16T11:19:41;96803.34;;;21.39;100.00
44255;BME280;29933;47.226;15.734;2022-10-16T11:28:22;96800.28;;;21.37;100.00
44255;BME280;29933;47.226;15.734;2022-10-16T11:37:41;96809.38;;;21.47;100.00
44255;BME280;29933;47.226;15.734;2022-10-16T11:40:31;96810.28;;;21.44;100.00
44255;BME280;29933;47.226;15.734;2022-10-16T11:43:35;96800.09;;;21.54;100.00
44255;BME280;29933;47.226;15.734;2022-10-16T11:46:19;96799.88;;;21.61;100.00
44255;BME280;29933;47.226;15.734;2022-10-16T11:55:16;96808.34;;;21.66;91.60
44255;BME280;29933;47.226;15.734;2022-10-16T12:01:40;96795.81;;;21.75;92.02
44255;BME280;29933;47.226;15.734;2022-10-16T12:04:29;96798.19;;;21.63;92.33
44255;BME280;29933;47.226;15.734;2022-10-16T12:07:15;96803.78;;;21.73;93.08
44255;BME280;29933;47.226;15.734;2022-10-16T12:09:43;96802.72;;;21.79;92.47
44255;BME280;29933;47.226;15.734;2022-10-16T12:15:28;96803.78;;;21.73;91.68
44255;BME280;29933;47.226;15.734;2022-10-16T12:26:27;96801.75;;;21.73;91.23
44255;BME280;29933;47.226;15.734;2022-10-16T12:48:39;96815.69;;;22.14;89.05
44255;BME280;29933;47.226;15.734;2022-10-16T12:59:39;96813.91;;;21.98;88.88
44255;BME280;29933;47.226;15.734;2022-10-16T13:16:56;96828.63;;;21.95;89.09
44255;BME280;29933;47.226;15.734;2022-10-16T13:20:27;96833.72;;;21.96;87.24
44255;BME280;29933;47.226;15.734;2022-10-16T13:23:15;96830.56;;;21.85;87.42
44255;BME280;29933;47.226;15.734;2022-10-16T13:28:57;96842.13;;;21.93;88.45
44255;BME280;29933;47.226;15.734;2022-10-16T13:31:24;96845.03;;;21.89;87.52
44255;BME280;29933;47.226;15.734;2022-10-16T13:33:54;96843.47;;;21.88;88.66
44255;BME280;29933;47.226;15.734;2022-10-16T13:36:42;96845.94;;;21.86;89.41
44255;BME280;29933;47.226;15.734;2022-10-16T13:39:27;96849.66;;;21.92;89.60
44255;BME280;29933;47.226;15.734;2022-10-16T13:42:12;96848.16;;;22.00;84.16
44255;BME280;29933;47.226;15.734;2022-10-16T13:44:48;96854.63;;;21.97;88.75
44255;BME280;29933;47.226;15.734;2022-10-16T13:49:43;96852.47;;;22.02;90.56
44255;BME280;29933;47.226;15.734;2022-10-16T13:52:19;96864.59;;;21.95;90.32
44255;BME280;29933;47.226;15.734;2022-10-16T13:54:45;96864.50;;;21.86;87.83
44255;BME280;29933;47.226;15.734;2022-10-16T13:57:17;96859.06;;;21.73;89.21
44255;BME280;29933;47.226;15.734;2022-10-16T13:59:43;96863.28;;;21.64;91.29
44255;BME280;29933;47.226;15.734;2022-10-16T14:02:34;96860.28;;;21.72;91.42
44255;BME280;29933;47.226;15.734;2022-10-16T14:05:04;96864.13;;;21.74;91.38
44255;BME280;29933;47.226;15.734;2022-10-16T14:07:35;96868.81;;;21.64;93.81
44255;BME280;29933;47.226;15.734;2022-10-16T14:10:18;96862.41;;;21.67;92.55
44255;BME280;29933;47.226;15.734;2022-10-16T14:13:03;96870.34;;;21.65;90.69
44255;BME280;29933;47.226;15.734;2022-10-16T14:15:35;96871.56;;;21.64;91.78
44255;BME280;29933;47.226;15.734;2022-10-16T14:18:02;96871.47;;;21.55;91.18
44255;BME280;29933;47.226;15.734;2022-10-16T14:20:33;96873.69;;;21.60;93.43
44255;BME280;29933;47.226;15.734;2022-10-16T14:23:29;96867.28;;;21.63;95.63
44255;BME280;29933;47.226;15.734;2022-10-16T14:28:37;96870.72;;;21.55;94.31
44255;BME280;29933;47.226;15.734;2022-10-16T14:31:31;96876.03;;;21.49;93.95
44255;BME280;29933;47.226;15.734;2022-10-16T14:33:58;96871.31;;;21.36;92.46
44255;BME280;29933;47.226;15.734;2022-10-16T14:36:28;96876.31;;;21.29;93.73
44255;BME280;29933;47.226;15.734;2022-10-16T14:39:17;96881.97;;;21.25;94.69
44255;BME280;29933;47.226;15.734;2022-10-16T14:41:48;96890.47;;;21.18;94.56
44255;BME280;29933;47.226;15.734;2022-10-16T14:44:17;96884.19;;;21.04;93.25
44255;BME280;29933;47.226;15.734;2022-10-16T14:46:45;96887.53;;;20.99;94.42
44255;BME280;29933;47.226;15.734;2022-10-16T14:51:40;96897.38;;;20.87;95.55
44255;BME280;29933;47.226;15.734;2022-10-16T14:54:16;96892.84;;;20.81;96.45
44255;BME280;29933;47.226;15.734;2022-10-16T14:56:57;96901.88;;;20.68;97.89
44255;BME280;29933;47.226;15.734;2022-10-16T14:59:42;96912.44;;;20.57;99.13
44255;BME280;29933;47.226;15.734;2022-10-16T15:02:31;96906.94;;;20.44;99.45
44255;BME280;29933;47.226;15.734;2022-10-16T15:05:23;96913.19;;;20.32;100.00
44255;BME280;29933;47.226;15.734;2022-10-16T15:08:21;96910.63;;;20.25;100.00
44255;BME280;29933;47.226;15.734;2022-10-16T15:10:48;96908.88;;;20.18;100.00
44255;BME280;29933;47.226;15.734;2022-10-16T15:13:14;96909.81;;;19.98;100.00
44255;BME280;29933;47.226;15.734;2022-10-16T15:15:47;96915.28;;;19.85;100.00
44255;BME280;29933;47.226;15.734;2022-10-16T15:18:15;96919.00;;;19.62;100.00
44255;BME280;29933;47.226;15.734;2022-10-16T15:20:50;96910.84;;;19.42;100.00
44255;BME280;29933;47.226;15.734;2022-10-16T15:23:21;96921.16;;;19.08;100.00
44255;BME280;29933;47.226;15.734;2022-10-16T15:25:55;96913.78;;;18.85;100.00